Time;durP1;ratioP1;P1;durP2;ratioP2;P2;SDS_P1;SDS_P2;PMS_P1;PMS_P2;Temp;Humidity;BMP_temperature;BMP_pressure;BME280_temperature;BME280_humidity;BME280_pressure;Samples;Min_cycle;Max_cycle;Signal;HPM_P1;HPM_P2
2022/08/25 00:01:25;;;;;;;4.20;3.90;;;;;;;;;;5050930;28;20791;-75
2022/08/25 00:03:52;;;;;;;3.73;3.43;;;;;;;;;;5049913;28;20446;-75
2022/08/25 00:06:20;;;;;;;4.33;4.03;;;;;;;;;;5050708;28;20466;-75
2022/08/25 00:08:48;;;;;;;4.60;3.80;;;;;;;;;;5050511;28;20445;-76
2022/08/25 00:11:17;;;;;;;4.10;3.80;;;;;;;;;;5050442;28;20441;-75
2022/08/25 00:13:46;;;;;;;4.40;4.10;;;;;;;;;;5049315;28;20485;-75
2022/08/25 00:16:15;;;;;;;4.23;3.93;;;;;;;;;;5050689;28;20462;-76
2022/08/25 00:18:44;;;;;;;4.27;3.97;;;;;;;;;;5049956;28;20881;-75
2022/08/25 00:21:11;;;;;;;4.10;3.80;;;;;;;;;;5050468;28;20532;-76
2022/08/25 00:23:40;;;;;;;4.50;4.20;;;;;;;;;;5050348;28;20429;-76
2022/08/25 00:26:07;;;;;;;6.93;3.97;;;;;;;;;;5050266;28;20469;-76
2022/08/25 00:28:35;;;;;;;4.60;4.20;;;;;;;;;;5050517;28;20446;-74
2022/08/25 00:31:02;;;;;;;4.70;4.17;;;;;;;;;;5050144;28;20757;-75
2022/08/25 00:33:30;;;;;;;4.20;3.90;;;;;;;;;;5049763;28;20500;-75
2022/08/25 00:35:58;;;;;;;4.10;3.80;;;;;;;;;;5049898;28;21055;-75
2022/08/25 00:38:25;;;;;;;4.83;4.50;;;;;;;;;;5050238;28;20500;-76
2022/08/25 00:41:05;;;;;;;3.90;3.60;;;;;;;;;;5053067;28;20449;-75
2022/08/25 00:43:34;;;;;;;4.43;4.10;;;;;;;;;;5053497;28;20544;-75
2022/08/25 00:46:01;;;;;;;4.97;4.10;;;;;;;;;;5053847;28;20480;-75
2022/08/25 00:48:28;;;;;;;4.87;3.90;;;;;;;;;;5054205;28;20944;-75
2022/08/25 00:50:55;;;;;;;5.20;4.70;;;;;;;;;;5053468;28;20528;-76
2022/08/25 00:53:22;;;;;;;5.00;4.57;;;;;;;;;;5052643;28;20535;-76
2022/08/25 00:55:50;;;;;;;4.47;4.03;;;;;;;;;;5053367;28;20474;-76
2022/08/25 00:58:20;;;;;;;4.97;4.57;;;;;;;;;;5053624;28;20448;-76
2022/08/25 01:00:49;;;;;;;4.63;4.33;;;;;;;;;;5053617;28;20837;-76
2022/08/25 01:03:17;;;;;;;4.33;4.03;;;;;;;;;;5052884;28;20481;-77
2022/08/25 01:05:44;;;;;;;5.03;4.63;;;;;;;;;;5053212;28;20999;-76
2022/08/25 01:08:11;;;;;;;4.50;4.10;;;;;;;;;;5053391;28;20445;-75
2022/08/25 01:10:41;;;;;;;4.10;3.90;;;;;;;;;;5050552;28;20793;-75
2022/08/25 01:13:10;;;;;;;5.00;4.67;;;;;;;;;;5052776;28;20473;-75
2022/08/25 01:15:40;;;;;;;5.23;4.50;;;;;;;;;;5053070;28;20497;-76
2022/08/25 01:18:07;;;;;;;4.93;4.53;;;;;;;;;;5052583;28;20446;-75
2022/08/25 01:20:34;;;;;;;4.80;4.43;;;;;;;;;;5052777;28;20557;-75
2022/08/25 01:23:03;;;;;;;4.83;4.53;;;;;;;;;;5053442;28;20476;-75
2022/08/25 01:25:36;;;;;;;5.33;4.90;;;;;;;;;;5053582;28;20503;-75
2022/08/25 01:28:03;;;;;;;4.60;4.30;;;;;;;;;;5053808;28;21005;-74
2022/08/25 01:30:30;;;;;;;4.77;4.47;;;;;;;;;;5054471;28;20523;-75
2022/08/25 01:32:57;;;;;;;4.87;4.47;;;;;;;;;;5053420;28;20481;-74
2022/08/25 01:35:24;;;;;;;5.20;4.80;;;;;;;;;;5055946;28;20465;-74
2022/08/25 01:37:51;;;;;;;4.70;4.40;;;;;;;;;;5053504;28;20445;-75
2022/08/25 01:40:20;;;;;;;4.83;4.53;;;;;;;;;;5053613;28;20858;-75
2022/08/25 01:42:53;;;;;;;5.13;4.83;;;;;;;;;;5053194;28;20492;-74
2022/08/25 01:45:20;;;;;;;4.93;4.63;;;;;;;;;;5053129;28;20450;-74
2022/08/25 01:47:47;;;;;;;5.50;5.10;;;;;;;;;;5052953;28;20457;-75
2022/08/25 01:50:14;;;;;;;4.53;4.23;;;;;;;;;;5053066;28;20500;-74
2022/08/25 01:52:47;;;;;;;5.50;5.00;;;;;;;;;;5045133;28;20977;-75
2022/08/25 01:55:14;;;;;;;6.07;5.53;;;;;;;;;;5047543;28;20453;-75
2022/08/25 01:57:42;;;;;;;5.17;4.77;;;;;;;;;;5053166;28;20449;-75
2022/08/25 02:00:11;;;;;;;4.73;4.30;;;;;;;;;;5053057;28;20442;-76
2022/08/25 02:02:39;;;;;;;5.60;5.10;;;;;;;;;;5051701;28;20465;-75
2022/08/25 02:05:07;;;;;;;5.30;4.90;;;;;;;;;;5053135;28;20457;-76
2022/08/25 02:07:34;;;;;;;5.40;4.87;;;;;;;;;;5049708;28;20473;-76
2022/08/25 02:10:03;;;;;;;5.60;5.20;;;;;;;;;;5045237;28;20453;-76
2022/08/25 02:12:30;;;;;;;5.43;5.03;;;;;;;;;;5052675;28;20480;-76
2022/08/25 02:15:00;;;;;;;5.80;5.30;;;;;;;;;;5052884;28;20445;-75
2022/08/25 02:17:27;;;;;;;5.50;5.00;;;;;;;;;;5052879;28;20553;-76
2022/08/25 02:19:55;;;;;;;8.73;5.63;;;;;;;;;;5052600;28;20973;-75
2022/08/25 02:22:23;;;;;;;5.63;5.13;;;;;;;;;;5052668;28;20898;-75
2022/08/25 02:24:50;;;;;;;4.83;4.50;;;;;;;;;;5052477;28;20442;-75
2022/08/25 02:27:17;;;;;;;6.30;5.63;;;;;;;;;;5052784;28;20591;-75
2022/08/25 02:29:44;;;;;;;6.13;5.57;;;;;;;;;;5052692;28;20829;-75
2022/08/25 02:32:12;;;;;;;5.43;5.03;;;;;;;;;;5052601;28;20520;-74
2022/08/25 02:34:40;;;;;;;5.93;5.23;;;;;;;;;;5052224;28;20473;-76
2022/08/25 02:37:08;;;;;;;5.53;5.13;;;;;;;;;;5052248;28;20473;-75
2022/08/25 02:39:35;;;;;;;5.47;5.00;;;;;;;;;;5052120;28;20529;-76
2022/08/25 02:42:02;;;;;;;5.50;5.10;;;;;;;;;;5052635;28;20449;-75
2022/08/25 02:44:30;;;;;;;4.87;4.57;;;;;;;;;;5051946;28;20437;-75
2022/08/25 02:46:57;;;;;;;5.40;5.00;;;;;;;;;;5052660;28;21020;-76
2022/08/25 02:49:25;;;;;;;5.20;4.80;;;;;;;;;;5052245;28;20491;-75
2022/08/25 02:51:53;;;;;;;5.20;4.80;;;;;;;;;;5052139;28;20519;-76
2022/08/25 02:54:21;;;;;;;5.60;5.10;;;;;;;;;;5051770;28;21278;-76
2022/08/25 02:56:49;;;;;;;5.50;5.10;;;;;;;;;;5051909;28;20523;-76
2022/08/25 02:59:16;;;;;;;5.37;4.97;;;;;;;;;;5051755;28;20442;-75
2022/08/25 03:01:43;;;;;;;5.23;4.80;;;;;;;;;;5051478;28;20505;-74
2022/08/25 03:04:10;;;;;;;5.07;4.67;;;;;;;;;;5051319;28;20446;-75
2022/08/25 03:06:39;;;;;;;5.60;5.20;;;;;;;;;;5051957;28;20511;-75
2022/08/25 03:09:06;;;;;;;5.80;5.33;;;;;;;;;;5052436;28;20504;-75
2022/08/25 03:11:33;;;;;;;4.83;4.43;;;;;;;;;;5052042;28;20472;-76
2022/08/25 03:14:00;;;;;;;5.40;4.90;;;;;;;;;;5051529;28;20489;-75
2022/08/25 03:16:28;;;;;;;5.53;4.93;;;;;;;;;;5051703;28;20461;-76
2022/08/25 03:18:55;;;;;;;5.40;5.10;;;;;;;;;;5051932;28;20452;-75
2022/08/25 03:21:22;;;;;;;5.77;5.27;;;;;;;;;;5051534;28;20472;-75
2022/08/25 03:23:51;;;;;;;5.30;4.90;;;;;;;;;;5051296;28;20444;-75
2022/08/25 03:29:04;;;;;;;5.40;4.90;;;;;;;;;;5051639;28;20417;-75
2022/08/25 03:31:31;;;;;;;5.50;5.10;;;;;;;;;;5051932;28;20450;-75
2022/08/25 03:33:58;;;;;;;5.20;4.70;;;;;;;;;;5052111;28;20539;-75
2022/08/25 03:36:25;;;;;;;6.10;5.57;;;;;;;;;;5052753;28;20881;-76
2022/08/25 03:38:54;;;;;;;6.00;5.43;;;;;;;;;;5052825;28;20525;-75
2022/08/25 03:41:22;;;;;;;6.13;5.63;;;;;;;;;;5054661;28;20507;-75
2022/08/25 03:43:49;;;;;;;5.60;5.10;;;;;;;;;;5054985;28;20487;-74
2022/08/25 03:46:18;;;;;;;5.93;5.40;;;;;;;;;;5048205;28;20474;-75
2022/08/25 03:48:45;;;;;;;5.37;5.00;;;;;;;;;;5057671;28;20443;-74
2022/08/25 03:51:12;;;;;;;5.80;5.33;;;;;;;;;;5057774;28;20441;-75
2022/08/25 03:53:39;;;;;;;5.30;4.90;;;;;;;;;;5056844;28;20521;-75
2022/08/25 03:56:08;;;;;;;5.70;5.30;;;;;;;;;;5057918;28;20519;-77
2022/08/25 03:58:35;;;;;;;7.40;6.20;;;;;;;;;;5058816;28;20442;-75
2022/08/25 04:01:02;;;;;;;5.20;4.80;;;;;;;;;;5057941;28;20542;-74
2022/08/25 04:03:29;;;;;;;5.80;5.40;;;;;;;;;;5057829;28;20446;-75
2022/08/25 04:05:56;;;;;;;5.73;5.33;;;;;;;;;;5059728;28;20516;-74
2022/08/25 04:08:24;;;;;;;7.00;6.30;;;;;;;;;;5053030;28;20833;-75
2022/08/25 04:10:51;;;;;;;5.70;5.20;;;;;;;;;;5051224;28;20452;-76
2022/08/25 04:13:19;;;;;;;6.43;6.00;;;;;;;;;;5050855;28;20473;-75
2022/08/25 04:15:46;;;;;;;6.53;6.03;;;;;;;;;;5054765;28;20487;-74
2022/08/25 04:18:13;;;;;;;6.40;5.90;;;;;;;;;;5056541;28;20438;-75
2022/08/25 04:20:41;;;;;;;6.77;6.17;;;;;;;;;;5055086;28;20818;-75
2022/08/25 04:23:08;;;;;;;6.60;6.10;;;;;;;;;;5054813;28;20528;-75
2022/08/25 04:25:35;;;;;;;6.00;5.50;;;;;;;;;;5055009;28;21039;-75
2022/08/25 04:28:02;;;;;;;6.20;5.70;;;;;;;;;;5054566;28;20526;-75
2022/08/25 04:30:30;;;;;;;6.33;5.83;;;;;;;;;;5054960;28;20867;-75
2022/08/25 04:32:57;;;;;;;6.97;6.37;;;;;;;;;;5055167;28;20446;-76
2022/08/25 04:35:24;;;;;;;6.50;6.00;;;;;;;;;;5055188;28;20434;-75
2022/08/25 04:37:52;;;;;;;6.60;6.10;;;;;;;;;;5055091;28;20948;-75
2022/08/25 04:40:19;;;;;;;6.20;5.60;;;;;;;;;;5056278;28;20499;-75
2022/08/25 04:42:46;;;;;;;6.50;6.00;;;;;;;;;;5056306;28;20445;-76
2022/08/25 04:45:13;;;;;;;6.50;6.00;;;;;;;;;;5056391;28;20439;-75
2022/08/25 04:47:41;;;;;;;10.53;6.57;;;;;;;;;;5056171;28;20449;-75
2022/08/25 04:50:09;;;;;;;7.13;6.40;;;;;;;;;;5055827;28;20441;-75
2022/08/25 04:52:37;;;;;;;6.80;6.20;;;;;;;;;;5054001;28;20532;-75
2022/08/25 04:55:04;;;;;;;6.57;6.07;;;;;;;;;;5054054;28;20478;-75
2022/08/25 04:57:31;;;;;;;7.93;7.23;;;;;;;;;;5054113;28;20975;-75
2022/08/25 04:59:58;;;;;;;6.77;6.27;;;;;;;;;;5054432;28;20446;-76
2022/08/25 05:02:25;;;;;;;7.53;6.90;;;;;;;;;;5054151;28;20980;-76
2022/08/25 05:04:55;;;;;;;8.53;7.10;;;;;;;;;;5054218;28;20488;-75
2022/08/25 05:07:22;;;;;;;7.93;7.07;;;;;;;;;;5053938;28;20834;-75
2022/08/25 05:09:49;;;;;;;8.03;7.23;;;;;;;;;;5054074;28;20505;-75
2022/08/25 05:12:16;;;;;;;7.87;7.27;;;;;;;;;;5054090;28;20998;-75
2022/08/25 05:14:43;;;;;;;11.00;8.43;;;;;;;;;;5053558;28;20477;-75
2022/08/25 05:17:10;;;;;;;7.70;7.07;;;;;;;;;;5053877;28;20527;-76
2022/08/25 05:19:37;;;;;;;8.80;7.40;;;;;;;;;;5053984;28;20868;-74
2022/08/25 05:22:05;;;;;;;7.30;6.60;;;;;;;;;;5053863;28;20441;-75
2022/08/25 05:24:32;;;;;;;7.00;6.43;;;;;;;;;;5054060;28;20430;-76
2022/08/25 05:27:00;;;;;;;8.30;7.60;;;;;;;;;;5053317;28;20462;-76
2022/08/25 05:29:27;;;;;;;8.77;7.87;;;;;;;;;;5053721;28;20450;-76
2022/08/25 05:31:54;;;;;;;8.70;7.80;;;;;;;;;;5053435;28;20495;-75
2022/08/25 05:34:21;;;;;;;8.10;7.30;;;;;;;;;;5053313;28;20477;-75
2022/08/25 05:36:49;;;;;;;8.43;7.73;;;;;;;;;;5053352;28;20523;-75
2022/08/25 05:39:18;;;;;;;8.97;8.27;;;;;;;;;;5054020;28;20472;-77
2022/08/25 05:41:45;;;;;;;9.00;8.20;;;;;;;;;;5053335;28;20434;-75
2022/08/25 05:44:12;;;;;;;9.23;8.37;;;;;;;;;;5053117;28;20441;-76
2022/08/25 05:46:39;;;;;;;9.40;8.60;;;;;;;;;;5053500;28;20505;-75
2022/08/25 05:49:06;;;;;;;9.30;8.43;;;;;;;;;;5052946;28;20438;-76
2022/08/25 05:51:33;;;;;;;8.97;8.03;;;;;;;;;;5053582;28;20499;-77
2022/08/25 05:54:00;;;;;;;9.10;8.40;;;;;;;;;;5053122;28;21158;-76
2022/08/25 05:56:30;;;;;;;8.43;7.80;;;;;;;;;;5053266;28;20458;-78
2022/08/25 05:58:57;;;;;;;8.67;7.90;;;;;;;;;;5053241;28;20438;-76
2022/08/25 06:04:10;;;;;;;9.03;8.20;;;;;;;;;;5053259;28;20559;-77
2022/08/25 06:06:37;;;;;;;10.30;9.30;;;;;;;;;;5053241;28;20603;-76
2022/08/25 06:09:07;;;;;;;8.10;7.40;;;;;;;;;;5053126;28;20457;-76
2022/08/25 06:11:36;;;;;;;9.87;8.87;;;;;;;;;;5049657;28;20941;-77
2022/08/25 06:14:03;;;;;;;12.63;8.97;;;;;;;;;;5045522;28;20524;-76
2022/08/25 06:16:30;;;;;;;9.37;7.70;;;;;;;;;;5053007;28;20466;-76
2022/08/25 06:18:57;;;;;;;9.20;8.40;;;;;;;;;;5053265;28;20493;-77
2022/08/25 06:21:24;;;;;;;8.87;8.07;;;;;;;;;;5050903;28;20457;-77
2022/08/25 06:23:51;;;;;;;8.20;7.60;;;;;;;;;;5052532;28;20933;-76
2022/08/25 06:26:18;;;;;;;9.37;8.60;;;;;;;;;;5048700;28;20461;-77
2022/08/25 06:28:47;;;;;;;9.67;8.57;;;;;;;;;;5052221;28;20446;-76
2022/08/25 06:31:14;;;;;;;9.47;8.60;;;;;;;;;;5052955;28;20437;-76
2022/08/25 06:33:41;;;;;;;8.60;7.90;;;;;;;;;;5052232;28;20449;-77
2022/08/25 06:36:08;;;;;;;10.83;7.70;;;;;;;;;;5051046;28;20465;-77
2022/08/25 06:38:35;;;;;;;9.07;7.93;;;;;;;;;;5051036;28;20450;-76
2022/08/25 06:41:04;;;;;;;8.60;7.93;;;;;;;;;;5050206;28;20449;-76
2022/08/25 06:43:31;;;;;;;8.77;8.07;;;;;;;;;;5051666;28;20499;-77
2022/08/25 06:46:00;;;;;;;8.37;7.67;;;;;;;;;;5052002;28;20596;-75
2022/08/25 06:48:27;;;;;;;8.70;7.90;;;;;;;;;;5052172;28;20969;-76
2022/08/25 06:50:54;;;;;;;8.37;7.50;;;;;;;;;;5052277;28;20550;-76
2022/08/25 06:53:21;;;;;;;9.50;8.27;;;;;;;;;;5051604;28;20446;-77
2022/08/25 06:55:56;;;;;;;8.80;8.03;;;;;;;;;;5051528;28;20493;-76
2022/08/25 06:58:23;;;;;;;9.97;8.40;;;;;;;;;;5052478;28;20460;-76
2022/08/25 07:00:50;;;;;;;8.67;7.80;;;;;;;;;;5052239;28;20445;-76
2022/08/25 07:03:18;;;;;;;11.77;8.10;;;;;;;;;;5051590;28;20446;-75
2022/08/25 07:05:51;;;;;;;10.40;8.37;;;;;;;;;;5052892;28;20515;-76
2022/08/25 07:08:18;;;;;;;8.40;7.63;;;;;;;;;;5052944;28;20438;-77
2022/08/25 07:10:45;;;;;;;8.20;7.53;;;;;;;;;;5051847;28;20532;-76
2022/08/25 07:13:12;;;;;;;11.23;8.00;;;;;;;;;;5051579;28;20453;-75
2022/08/25 07:15:39;;;;;;;9.10;8.10;;;;;;;;;;5051624;28;20534;-76
2022/08/25 07:18:06;;;;;;;8.50;7.63;;;;;;;;;;5051754;28;20532;-76
2022/08/25 07:20:36;;;;;;;8.37;7.47;;;;;;;;;;5051507;28;20441;-77
2022/08/25 07:23:03;;;;;;;8.57;7.70;;;;;;;;;;5051626;28;20438;-76
2022/08/25 07:25:30;;;;;;;11.10;8.57;;;;;;;;;;5054331;28;20463;-76
2022/08/25 07:27:57;;;;;;;7.90;7.13;;;;;;;;;;5055077;28;20442;-74
2022/08/25 07:30:24;;;;;;;8.30;7.60;;;;;;;;;;5051588;28;20446;-77
2022/08/25 07:32:51;;;;;;;8.90;8.10;;;;;;;;;;5051112;28;20941;-76
2022/08/25 07:35:22;;;;;;;9.33;8.43;;;;;;;;;;5051092;28;20984;-76
2022/08/25 07:37:51;;;;;;;8.33;7.53;;;;;;;;;;5051354;28;20498;-76
2022/08/25 07:40:21;;;;;;;8.67;7.87;;;;;;;;;;5060233;28;20445;-75
2022/08/25 07:42:49;;;;;;;9.40;8.50;;;;;;;;;;5058726;28;20446;-76
2022/08/25 07:45:16;;;;;;;9.13;8.20;;;;;;;;;;5057530;28;20530;-76
2022/08/25 07:47:43;;;;;;;8.63;7.87;;;;;;;;;;5054469;28;20449;-75
2022/08/25 07:50:11;;;;;;;9.30;8.40;;;;;;;;;;5054319;28;20438;-74
2022/08/25 07:52:38;;;;;;;9.50;8.03;;;;;;;;;;5057983;28;20437;-75
2022/08/25 07:55:07;;;;;;;8.57;7.80;;;;;;;;;;5058267;28;20714;-76
2022/08/25 07:57:35;;;;;;;8.20;7.40;;;;;;;;;;5053406;28;20465;-76
2022/08/25 08:00:02;;;;;;;7.90;7.27;;;;;;;;;;5051330;28;20456;-75
2022/08/25 08:02:29;;;;;;;8.70;7.87;;;;;;;;;;5051340;28;20445;-75
2022/08/25 08:04:56;;;;;;;8.30;7.47;;;;;;;;;;5051343;28;20499;-75
2022/08/25 08:07:24;;;;;;;8.80;7.90;;;;;;;;;;5051738;28;20534;-76
2022/08/25 08:09:52;;;;;;;8.00;7.30;;;;;;;;;;5051722;28;20511;-76
2022/08/25 08:12:20;;;;;;;7.93;7.27;;;;;;;;;;5043393;28;20441;-76
2022/08/25 08:14:48;;;;;;;9.20;7.40;;;;;;;;;;5051261;28;20484;-77
2022/08/25 08:17:15;;;;;;;8.50;7.90;;;;;;;;;;5051187;28;20980;-75
2022/08/25 08:19:42;;;;;;;8.73;8.03;;;;;;;;;;5051133;28;20487;-74
2022/08/25 08:22:10;;;;;;;8.10;7.50;;;;;;;;;;5051311;28;20449;-74
2022/08/25 08:24:38;;;;;;;8.00;7.30;;;;;;;;;;5051012;28;20482;-75
2022/08/25 08:27:05;;;;;;;7.20;6.70;;;;;;;;;;5050932;28;20496;-75
2022/08/25 08:29:34;;;;;;;8.30;7.60;;;;;;;;;;5050770;28;20445;-75
2022/08/25 08:32:01;;;;;;;8.27;7.57;;;;;;;;;;5051230;28;20472;-76
2022/08/25 08:34:28;;;;;;;9.20;6.80;;;;;;;;;;5050794;28;20817;-75
2022/08/25 08:36:56;;;;;;;8.30;7.70;;;;;;;;;;5050849;28;20512;-75
2022/08/25 08:39:23;;;;;;;7.97;7.27;;;;;;;;;;5051223;28;20441;-74
2022/08/25 08:44:49;;;;;;;7.30;6.40;;;;;;;;;;5051157;28;20425;-74
2022/08/25 08:47:22;;;;;;;7.40;6.80;;;;;;;;;;5050968;28;20477;-75
2022/08/25 08:49:53;;;;;;;7.17;6.60;;;;;;;;;;5051040;28;20515;-75
2022/08/25 08:52:22;;;;;;;7.80;7.00;;;;;;;;;;5050716;28;20491;-74
2022/08/25 08:54:57;;;;;;;8.20;7.50;;;;;;;;;;5051275;28;20524;-75
2022/08/25 08:57:26;;;;;;;8.20;6.60;;;;;;;;;;5051723;28;20526;-75
2022/08/25 08:59:57;;;;;;;6.30;5.80;;;;;;;;;;5051925;28;20861;-75
2022/08/25 09:02:27;;;;;;;6.87;6.37;;;;;;;;;;5054927;28;20464;-75
2022/08/25 09:04:56;;;;;;;7.40;6.13;;;;;;;;;;5054094;28;20902;-75
2022/08/25 09:07:27;;;;;;;6.27;5.73;;;;;;;;;;5054874;28;20469;-75
2022/08/25 09:09:54;;;;;;;6.20;5.67;;;;;;;;;;5054558;28;20536;-76
2022/08/25 09:12:25;;;;;;;6.10;5.60;;;;;;;;;;5054597;28;20453;-75
2022/08/25 09:15:02;;;;;;;7.90;5.33;;;;;;;;;;5054063;28;20480;-76
2022/08/25 09:17:36;;;;;;;5.97;5.57;;;;;;;;;;5052224;28;20473;-75
2022/08/25 09:20:09;;;;;;;10.20;5.93;;;;;;;;;;5047096;28;20506;-75
2022/08/25 09:22:44;;;;;;;6.30;5.50;;;;;;;;;;5050613;28;20533;-75
2022/08/25 09:25:15;;;;;;;6.43;5.83;;;;;;;;;;5053443;28;20629;-75
2022/08/25 09:27:47;;;;;;;6.80;6.20;;;;;;;;;;5053986;28;20442;-75
2022/08/25 09:30:16;;;;;;;6.03;5.57;;;;;;;;;;5053929;28;20462;-74
2022/08/25 09:32:45;;;;;;;5.80;5.33;;;;;;;;;;5048653;28;20458;-74
2022/08/25 09:35:15;;;;;;;6.60;6.10;;;;;;;;;;5053062;28;20485;-73
2022/08/25 09:37:42;;;;;;;5.80;5.40;;;;;;;;;;5053512;28;20437;-77
2022/08/25 09:40:10;;;;;;;5.67;5.17;;;;;;;;;;5053654;28;20503;-75
2022/08/25 09:42:48;;;;;;;6.10;5.60;;;;;;;;;;5053101;28;20448;-73
2022/08/25 09:45:17;;;;;;;5.90;5.40;;;;;;;;;;5049898;28;20453;-75
2022/08/25 09:47:45;;;;;;;6.20;5.70;;;;;;;;;;5053412;28;20482;-74
2022/08/25 09:50:16;;;;;;;6.53;6.13;;;;;;;;;;5053484;28;20481;-75
2022/08/25 09:52:44;;;;;;;6.27;5.77;;;;;;;;;;5054298;28;20445;-74
2022/08/25 09:55:27;;;;;;;6.87;6.37;;;;;;;;;;5055127;28;20484;-73
2022/08/25 09:57:55;;;;;;;6.60;5.90;;;;;;;;;;5055118;28;20511;-74
2022/08/25 10:00:25;;;;;;;7.57;6.80;;;;;;;;;;5054494;28;20442;-74
2022/08/25 10:03:04;;;;;;;6.50;6.10;;;;;;;;;;5054106;28;20449;-75
2022/08/25 10:05:34;;;;;;;6.63;6.17;;;;;;;;;;5055399;28;20442;-75
2022/08/25 10:08:02;;;;;;;6.50;6.00;;;;;;;;;;5050061;28;20465;-74
2022/08/25 10:10:31;;;;;;;6.63;6.13;;;;;;;;;;5055098;28;20548;-75
2022/08/25 10:12:59;;;;;;;7.23;6.67;;;;;;;;;;5053367;28;20437;-74
2022/08/25 10:15:30;;;;;;;5.63;5.17;;;;;;;;;;5051402;28;20481;-76
2022/08/25 10:17:58;;;;;;;6.33;5.83;;;;;;;;;;5048933;28;20442;-74
2022/08/25 10:20:26;;;;;;;6.50;6.10;;;;;;;;;;5053969;28;20541;-73
2022/08/25 10:23:09;;;;;;;5.93;5.53;;;;;;;;;;5046546;28;20934;-74
2022/08/25 10:25:38;;;;;;;6.60;6.10;;;;;;;;;;5053678;28;20972;-74
2022/08/25 10:28:11;;;;;;;5.53;5.13;;;;;;;;;;5052922;28;20507;-74
2022/08/25 10:30:48;;;;;;;6.20;5.57;;;;;;;;;;5052400;28;20441;-75
2022/08/25 10:33:18;;;;;;;5.80;5.40;;;;;;;;;;5051206;28;20434;-75
2022/08/25 10:35:52;;;;;;;6.00;5.50;;;;;;;;;;5052333;28;20493;-76
2022/08/25 10:38:26;;;;;;;6.40;5.90;;;;;;;;;;5051994;28;20446;-76
2022/08/25 10:40:57;;;;;;;5.37;4.97;;;;;;;;;;5051067;28;20506;-75
2022/08/25 10:43:30;;;;;;;5.10;4.70;;;;;;;;;;5051277;28;20512;-76
2022/08/25 10:46:03;;;;;;;4.97;4.67;;;;;;;;;;5051178;28;20588;-75
2022/08/25 10:48:44;;;;;;;5.13;4.73;;;;;;;;;;5051160;28;20527;-75
2022/08/25 10:51:23;;;;;;;6.37;5.90;;;;;;;;;;5051742;28;20515;-75
2022/08/25 10:53:56;;;;;;;5.97;5.50;;;;;;;;;;5051190;28;20471;-75
2022/08/25 10:56:26;;;;;;;8.50;5.73;;;;;;;;;;5052635;28;20543;-75
2022/08/25 10:58:59;;;;;;;6.30;5.70;;;;;;;;;;5052645;28;20548;-74
2022/08/25 11:01:32;;;;;;;6.20;5.40;;;;;;;;;;5052551;28;20521;-76
2022/08/25 11:04:01;;;;;;;5.30;5.00;;;;;;;;;;5051249;28;20548;-75
2022/08/25 11:06:34;;;;;;;5.40;5.00;;;;;;;;;;5050957;28;20535;-75
2022/08/25 11:09:03;;;;;;;5.77;5.20;;;;;;;;;;5050856;28;20487;-75
2022/08/25 11:11:32;;;;;;;5.77;5.30;;;;;;;;;;5051007;28;20457;-75
2022/08/25 11:14:01;;;;;;;5.77;5.30;;;;;;;;;;5050419;28;20437;-74
2022/08/25 11:16:34;;;;;;;6.07;5.23;;;;;;;;;;5051083;28;20489;-75
2022/08/25 11:19:04;;;;;;;5.60;5.10;;;;;;;;;;5051121;28;20445;-76
2022/08/25 11:21:33;;;;;;;5.13;4.73;;;;;;;;;;5051180;28;20475;-76
2022/08/25 11:24:08;;;;;;;6.23;5.73;;;;;;;;;;5050270;28;20449;-76
2022/08/25 11:26:38;;;;;;;5.00;4.60;;;;;;;;;;5048298;28;20468;-75
2022/08/25 11:29:07;;;;;;;4.93;4.63;;;;;;;;;;5047324;28;20442;-75
2022/08/25 11:31:40;;;;;;;5.00;4.60;;;;;;;;;;5051162;28;20905;-75
2022/08/25 11:34:10;;;;;;;4.47;4.10;;;;;;;;;;5047510;28;20453;-75
2022/08/25 11:36:39;;;;;;;4.97;4.47;;;;;;;;;;5051064;28;20511;-75
2022/08/25 11:39:11;;;;;;;5.10;4.73;;;;;;;;;;5050191;28;20442;-75
2022/08/25 11:41:42;;;;;;;5.73;4.60;;;;;;;;;;5048606;28;20438;-76
2022/08/25 11:44:27;;;;;;;5.93;4.10;;;;;;;;;;5045472;28;20536;-75
2022/08/25 11:47:07;;;;;;;4.20;3.90;;;;;;;;;;5047181;28;20834;-76
2022/08/25 11:49:44;;;;;;;4.20;3.93;;;;;;;;;;5044131;28;20507;-75
2022/08/25 11:52:26;;;;;;;4.47;4.17;;;;;;;;;;5050364;28;20449;-75
2022/08/25 11:54:53;;;;;;;4.20;3.80;;;;;;;;;;5050271;28;20859;-75
2022/08/25 11:57:24;;;;;;;5.47;5.07;;;;;;;;;;5048249;28;20489;-75
2022/08/25 12:00:10;;;;;;;3.80;3.60;;;;;;;;;;5046751;28;20941;-76
2022/08/25 12:02:40;;;;;;;3.87;3.67;;;;;;;;;;5044200;28;20453;-75
2022/08/25 12:05:08;;;;;;;4.23;4.03;;;;;;;;;;5050212;28;20529;-76
2022/08/25 12:10:50;;;;;;;4.30;3.90;;;;;;;;;;5049483;28;20428;-76
2022/08/25 12:13:35;;;;;;;4.30;3.90;;;;;;;;;;5049726;28;20626;-76
2022/08/25 12:16:02;;;;;;;4.47;4.17;;;;;;;;;;5036583;28;20556;-76
2022/08/25 12:18:42;;;;;;;4.00;3.80;;;;;;;;;;5050042;28;20446;-75
2022/08/25 12:21:11;;;;;;;3.80;3.47;;;;;;;;;;5050497;28;20449;-76
2022/08/25 12:23:39;;;;;;;3.83;3.63;;;;;;;;;;5049967;28;20454;-76
2022/08/25 12:26:09;;;;;;;3.83;3.53;;;;;;;;;;5049798;28;20516;-75
2022/08/25 12:28:41;;;;;;;4.03;3.73;;;;;;;;;;5049879;28;20499;-75
2022/08/25 12:31:16;;;;;;;4.20;4.00;;;;;;;;;;5049278;28;20835;-75
2022/08/25 12:33:51;;;;;;;4.10;3.80;;;;;;;;;;5049290;28;20445;-76
2022/08/25 12:36:27;;;;;;;4.20;3.87;;;;;;;;;;5052079;28;20472;-76
2022/08/25 12:38:54;;;;;;;4.07;3.73;;;;;;;;;;5052849;28;20876;-76
2022/08/25 12:41:22;;;;;;;4.43;3.57;;;;;;;;;;5052994;28;20442;-76
2022/08/25 12:43:50;;;;;;;3.70;3.50;;;;;;;;;;5053044;28;20456;-77
2022/08/25 12:46:33;;;;;;;3.57;3.37;;;;;;;;;;5053715;28;20501;-76
2022/08/25 12:49:02;;;;;;;3.50;3.30;;;;;;;;;;5053640;28;20472;-76
2022/08/25 12:51:43;;;;;;;3.50;3.30;;;;;;;;;;5053476;28;20429;-76
2022/08/25 12:54:13;;;;;;;4.00;3.70;;;;;;;;;;5052632;28;20507;-76
2022/08/25 12:56:42;;;;;;;3.90;3.60;;;;;;;;;;5050792;28;20995;-75
2022/08/25 12:59:15;;;;;;;4.43;4.00;;;;;;;;;;5053717;28;20938;-75
2022/08/25 13:01:53;;;;;;;4.00;3.70;;;;;;;;;;5050515;28;20449;-75
2022/08/25 13:04:45;;;;;;;2.87;2.77;;;;;;;;;;5053441;28;20848;-75
2022/08/25 13:07:18;;;;;;;3.30;3.00;;;;;;;;;;5053778;28;20519;-74
2022/08/25 13:10:03;;;;;;;3.93;3.63;;;;;;;;;;5054095;28;20503;-75
2022/08/25 13:12:32;;;;;;;3.60;3.30;;;;;;;;;;5034134;28;20449;-75
2022/08/25 13:14:59;;;;;;;3.80;3.60;;;;;;;;;;5033765;28;20443;-74
2022/08/25 13:17:27;;;;;;;3.67;3.47;;;;;;;;;;5033757;28;20584;-74
2022/08/25 13:20:09;;;;;;;3.30;3.10;;;;;;;;;;5035250;28;20985;-74
2022/08/25 13:22:38;;;;;;;3.57;3.30;;;;;;;;;;5035590;28;20976;-74
2022/08/25 13:25:05;;;;;;;3.57;3.10;;;;;;;;;;5035620;28;20434;-75
2022/08/25 13:27:33;;;;;;;3.90;3.30;;;;;;;;;;5035227;28;20532;-75
2022/08/25 13:30:01;;;;;;;3.50;3.27;;;;;;;;;;5036190;28;20496;-74
2022/08/25 13:32:29;;;;;;;3.30;3.10;;;;;;;;;;5034856;28;20557;-75
2022/08/25 13:35:08;;;;;;;3.50;3.30;;;;;;;;;;5033620;28;20446;-74
2022/08/25 13:37:34;;;;;;;3.70;3.50;;;;;;;;;;5033422;28;21059;-75
2022/08/25 13:40:10;;;;;;;3.70;3.40;;;;;;;;;;5033475;28;20695;-75
2022/08/25 13:42:37;;;;;;;3.07;2.87;;;;;;;;;;5039038;28;20516;-75
2022/08/25 13:45:05;;;;;;;3.20;3.00;;;;;;;;;;5051459;28;20802;-75
2022/08/25 13:47:33;;;;;;;3.10;3.00;;;;;;;;;;5055248;28;20465;-75
2022/08/25 13:50:15;;;;;;;2.40;2.20;;;;;;;;;;5055351;28;20442;-75
2022/08/25 13:52:45;;;;;;;2.30;2.20;;;;;;;;;;5053506;28;20496;-75
2022/08/25 13:55:19;;;;;;;2.80;2.60;;;;;;;;;;5052804;28;20523;-76
2022/08/25 13:57:57;;;;;;;3.13;2.30;;;;;;;;;;5052227;28;20495;-76
2022/08/25 14:01:02;;;;;;;2.70;2.60;;;;;;;;;;5052280;28;20453;-76
2022/08/25 14:04:05;;;;;;;2.70;2.50;;;;;;;;;;5052190;28;20507;-76
2022/08/25 14:06:37;;;;;;;3.10;2.90;;;;;;;;;;5052446;28;20476;-77
2022/08/25 14:09:06;;;;;;;3.00;2.90;;;;;;;;;;5060055;28;20453;-76
2022/08/25 14:11:42;;;;;;;3.07;2.97;;;;;;;;;;5065975;28;20442;-76
2022/08/25 14:14:11;;;;;;;3.03;2.83;;;;;;;;;;5052498;28;20441;-76
2022/08/25 14:16:39;;;;;;;2.87;2.70;;;;;;;;;;5052019;28;20544;-75
2022/08/25 14:19:09;;;;;;;2.67;2.57;;;;;;;;;;5052616;28;20471;-74
2022/08/25 14:21:36;;;;;;;2.97;2.67;;;;;;;;;;5051666;28;20445;-76
2022/08/25 14:24:05;;;;;;;2.50;2.40;;;;;;;;;;5051726;28;20453;-76
2022/08/25 14:26:32;;;;;;;2.83;2.63;;;;;;;;;;5052060;28;20471;-76
2022/08/25 14:29:01;;;;;;;3.00;2.90;;;;;;;;;;5052134;28;20931;-75
2022/08/25 14:31:30;;;;;;;3.20;3.00;;;;;;;;;;5052133;28;20475;-76
2022/08/25 14:33:59;;;;;;;2.93;2.73;;;;;;;;;;5051888;28;20441;-76
2022/08/25 14:36:27;;;;;;;2.60;2.50;;;;;;;;;;5051589;28;20485;-76
2022/08/25 14:38:54;;;;;;;3.90;3.60;;;;;;;;;;5052082;28;20479;-75
2022/08/25 14:41:22;;;;;;;3.37;3.17;;;;;;;;;;5052098;28;20441;-76
2022/08/25 14:43:49;;;;;;;2.90;2.70;;;;;;;;;;5049324;28;20824;-75
2022/08/25 14:46:20;;;;;;;3.00;2.80;;;;;;;;;;5047874;28;20863;-76
2022/08/25 14:48:47;;;;;;;3.10;2.90;;;;;;;;;;5051504;28;20600;-77
2022/08/25 14:51:18;;;;;;;3.10;2.90;;;;;;;;;;5051204;28;20446;-75
2022/08/25 14:53:48;;;;;;;3.10;2.80;;;;;;;;;;5050765;28;20445;-76
2022/08/25 14:56:17;;;;;;;3.20;3.00;;;;;;;;;;5051005;28;20481;-76
2022/08/25 14:58:45;;;;;;;3.70;3.40;;;;;;;;;;5050584;28;20532;-75
2022/08/25 15:01:19;;;;;;;3.20;3.00;;;;;;;;;;5051215;28;20858;-75
2022/08/25 15:04:11;;;;;;;3.27;3.07;;;;;;;;;;5049882;28;20449;-76
2022/08/25 15:06:44;;;;;;;3.57;3.07;;;;;;;;;;5048337;28;20485;-75
2022/08/25 15:09:11;;;;;;;3.20;3.00;;;;;;;;;;5052065;28;20448;-75